Time;durP1;ratioP1;P1;durP2;ratioP2;P2;SDS_P1;SDS_P2;PMS_P1;PMS_P2;Temp;Humidity;BMP_temperature;BMP_pressure;BME280_temperature;BME280_humidity;BME280_pressure;Samples;Min_cycle;Max_cycle;Signal;HPM_P1;HPM_P2
2023/05/22 00:02:59;;;;;;;12.93;11.73;;;22.40;63.50;;;;;;4748722;55;22085;-35
2023/05/22 00:08:00;;;;;;;12.93;11.65;;;22.50;63.50;;;;;;4860064;55;21006;-36
2023/05/22 00:13:01;;;;;;;13.32;12.02;;;22.50;63.50;;;;;;4917402;55;21081;-37
2023/05/22 00:18:02;;;;;;;12.68;11.48;;;22.50;64.20;;;;;;4760838;55;20997;-36
2023/05/22 00:23:04;;;;;;;13.65;12.25;;;22.50;63.50;;;;;;4759191;55;21563;-35
2023/05/22 00:28:05;;;;;;;12.75;11.55;;;22.50;63.50;;;;;;4740422;59;21465;-35
2023/05/22 00:33:05;;;;;;;11.90;10.70;;;22.50;63.60;;;;;;4860895;55;21148;-37
2023/05/22 00:38:07;;;;;;;12.48;11.27;;;22.40;63.50;;;;;;4903288;55;21353;-36
2023/05/22 00:43:08;;;;;;;12.20;11.10;;;22.40;63.50;;;;;;4780931;55;21453;-36
2023/05/22 00:48:11;;;;;;;13.32;12.02;;;22.50;63.60;;;;;;4894678;55;21311;-36
2023/05/22 00:53:13;;;;;;;12.75;11.55;;;22.40;63.50;;;;;;5014989;55;21533;-36
2023/05/22 00:58:16;;;;;;;12.20;11.00;;;22.40;63.50;;;;;;4791767;55;21033;-35
2023/05/22 01:03:24;;;;;;;11.95;10.85;;;22.40;63.50;;;;;;4801435;55;21421;-38
2023/05/22 01:08:25;;;;;;;13.10;11.90;;;22.40;63.50;;;;;;5030810;55;21507;-35
2023/05/22 01:14:09;;;;;;;12.75;11.55;;;22.40;63.50;;;;;;4791509;55;21061;-35
2023/05/22 01:20:53;;;;;;;12.57;11.38;;;22.40;63.50;;;;;;4739986;59;21492;-37
2023/05/22 01:27:44;;;;;;;13.05;11.85;;;22.40;63.50;;;;;;4812642;55;21487;-34
2023/05/22 01:32:47;;;;;;;12.45;11.25;;;22.40;63.50;;;;;;4811740;55;21791;-39
2023/05/22 01:37:48;;;;;;;13.05;11.43;;;22.40;63.50;;;;;;4740109;59;22222;-38
2023/05/22 01:42:49;;;;;;;12.93;11.65;;;22.40;63.50;;;;;;4830081;54;21426;-36
2023/05/22 01:47:50;;;;;;;12.10;11.00;;;22.50;63.60;;;;;;4785928;55;21053;-36
2023/05/22 01:54:26;;;;;;;12.57;11.38;;;22.40;63.60;;;;;;4757989;55;21371;-36
2023/05/22 01:59:55;;;;;;;11.88;10.77;;;22.40;63.50;;;;;;4829676;55;21600;-39
2023/05/22 02:04:59;;;;;;;12.32;10.65;;;22.40;63.50;;;;;;4762328;55;21116;-37
2023/05/22 02:10:02;;;;;;;12.55;11.40;;;22.40;63.50;;;;;;4846346;55;21072;-37
2023/05/22 02:15:04;;;;;;;12.02;10.93;;;22.40;63.50;;;;;;4739684;59;21991;-35
2023/05/22 02:20:15;;;;;;;11.90;10.75;;;22.40;63.50;;;;;;4792370;55;20977;-36
2023/05/22 02:25:16;;;;;;;11.95;10.75;;;22.40;63.60;;;;;;4822061;55;21093;-36
2023/05/22 02:30:17;;;;;;;12.10;10.90;;;22.40;63.50;;;;;;4771375;55;21444;-39
2023/05/22 02:35:18;;;;;;;12.40;11.27;;;22.40;63.50;;;;;;4846531;55;21009;-35
2023/05/22 02:40:19;;;;;;;11.70;10.52;;;22.40;63.50;;;;;;4761397;55;21615;-36
2023/05/22 02:45:20;;;;;;;11.82;10.73;;;22.40;63.50;;;;;;4789542;55;21101;-38
2023/05/22 02:50:21;;;;;;;11.63;10.52;;;22.40;63.50;;;;;;4740773;59;21009;-38
2023/05/22 02:55:22;;;;;;;11.70;10.68;;;22.40;63.50;;;;;;4749959;55;21495;-39
2023/05/22 03:00:23;;;;;;;12.25;11.05;;;22.40;63.60;;;;;;4740244;59;21017;-35
2023/05/22 03:05:24;;;;;;;10.65;9.65;;;22.40;63.50;;;;;;4804635;55;21076;-39
2023/05/22 03:10:24;;;;;;;11.95;10.85;;;22.40;63.60;;;;;;4792059;55;21061;-33
2023/05/22 03:15:25;;;;;;;11.63;10.20;;;22.40;63.50;;;;;;4740484;59;21456;-33
2023/05/22 03:20:26;;;;;;;11.65;10.48;;;22.40;63.50;;;;;;4740048;59;21001;-36
2023/05/22 03:25:27;;;;;;;11.68;10.57;;;22.40;63.60;;;;;;4739617;59;21492;-36
2023/05/22 03:30:28;;;;;;;11.38;10.27;;;22.40;63.50;;;;;;4775250;54;21014;-39
2023/05/22 03:35:28;;;;;;;12.02;10.88;;;22.40;63.50;;;;;;4767327;55;21009;-38
2023/05/22 03:40:29;;;;;;;11.50;10.40;;;22.40;63.50;;;;;;4971544;55;22228;-37
2023/05/22 03:45:30;;;;;;;10.68;9.68;;;22.40;63.50;;;;;;4810109;55;21030;-37
2023/05/22 03:50:31;;;;;;;11.23;10.15;;;22.40;63.50;;;;;;4806832;55;21005;-37
2023/05/22 03:55:32;;;;;;;11.52;10.43;;;22.40;63.50;;;;;;4784860;55;21009;-35
2023/05/22 04:00:33;;;;;;;11.50;10.40;;;22.40;63.50;;;;;;4814936;54;21480;-37
2023/05/22 04:05:34;;;;;;;11.30;10.30;;;22.40;63.50;;;;;;4905881;55;21583;-37
2023/05/22 04:10:37;;;;;;;10.25;9.25;;;22.40;63.50;;;;;;4751764;55;20997;-36
2023/05/22 04:15:40;;;;;;;11.27;10.20;;;22.40;63.60;;;;;;4740729;59;21431;-37
2023/05/22 04:20:44;;;;;;;11.27;10.18;;;22.40;63.60;;;;;;4740191;59;21543;-33
2023/05/22 04:25:46;;;;;;;11.25;10.15;;;22.40;63.60;;;;;;4803097;54;21519;-37
2023/05/22 04:30:48;;;;;;;10.80;9.80;;;22.40;63.70;;;;;;4740193;59;22015;-37
2023/05/22 04:35:49;;;;;;;10.60;9.50;;;22.30;63.60;;;;;;4756478;55;21148;-35
2023/05/22 04:40:51;;;;;;;11.23;10.10;;;22.30;63.50;;;;;;4859005;55;21092;-36
2023/05/22 04:45:53;;;;;;;11.20;10.00;;;22.40;63.60;;;;;;4754169;55;21471;-35
2023/05/22 04:50:56;;;;;;;11.27;10.15;;;22.30;63.50;;;;;;5028603;55;21579;-34
2023/05/22 04:55:57;;;;;;;11.60;10.40;;;22.30;63.40;;;;;;4830547;55;21459;-36
2023/05/22 05:00:57;;;;;;;11.32;10.23;;;22.30;63.40;;;;;;4831354;55;21112;-34
2023/05/22 05:05:59;;;;;;;11.20;10.20;;;22.30;63.40;;;;;;4811942;55;21471;-37
2023/05/22 05:11:00;;;;;;;10.60;9.50;;;22.30;63.40;;;;;;4779131;55;21547;-28
2023/05/22 05:16:01;;;;;;;10.80;9.70;;;22.30;63.40;;;;;;4740114;59;21077;-37
2023/05/22 05:21:02;;;;;;;10.80;9.73;;;22.30;63.30;;;;;;4749592;55;21535;-34
2023/05/22 05:26:03;;;;;;;11.00;9.95;;;22.30;63.30;;;;;;4796998;55;21058;-38
2023/05/22 05:31:04;;;;;;;10.90;9.77;;;22.30;63.20;;;;;;4742666;55;21017;-35
2023/05/22 05:36:05;;;;;;;10.98;9.90;;;22.30;63.20;;;;;;4739993;59;21009;-36
2023/05/22 05:41:06;;;;;;;10.73;9.63;;;22.30;63.20;;;;;;4739221;59;21030;-36
2023/05/22 05:46:07;;;;;;;10.63;9.57;;;22.30;63.10;;;;;;4767897;55;21483;-37
2023/05/22 05:51:08;;;;;;;10.82;9.57;;;22.40;63.20;;;;;;4845407;55;21025;-37
2023/05/22 05:56:09;;;;;;;10.32;9.32;;;22.40;63.10;;;;;;4739993;59;21041;-32
2023/05/22 06:01:10;;;;;;;10.27;9.27;;;22.30;63.10;;;;;;4792944;55;21491;-34
2023/05/22 06:06:11;;;;;;;11.12;10.02;;;22.30;63.00;;;;;;4772136;55;21432;-34
2023/05/22 06:11:12;;;;;;;10.60;9.57;;;22.30;63.00;;;;;;4750609;55;21013;-34
2023/05/22 06:16:13;;;;;;;11.12;9.90;;;22.30;62.90;;;;;;4794453;55;21025;-36
2023/05/22 06:21:14;;;;;;;10.90;9.80;;;22.30;62.90;;;;;;4773010;55;21005;-35
2023/05/22 06:26:16;;;;;;;10.82;9.73;;;22.40;62.90;;;;;;4739072;59;21502;-35
2023/05/22 06:31:17;;;;;;;11.20;10.05;;;22.30;62.80;;;;;;4749291;55;21499;-31
2023/05/22 06:36:18;;;;;;;10.55;9.55;;;22.30;62.80;;;;;;4793087;55;21077;-37
2023/05/22 06:41:19;;;;;;;11.65;10.15;;;22.30;62.80;;;;;;4747240;55;21590;-35
2023/05/22 06:46:20;;;;;;;10.75;9.68;;;22.30;62.80;;;;;;4780967;55;21557;-35
2023/05/22 06:51:23;;;;;;;13.82;10.02;;;22.30;62.80;;;;;;4757492;55;21025;-35
2023/05/22 06:56:24;;;;;;;11.80;10.60;;;22.30;62.80;;;;;;4883659;55;21445;-36
2023/05/22 07:01:25;;;;;;;12.37;10.93;;;22.30;62.70;;;;;;4739894;59;21515;-37
2023/05/22 07:06:26;;;;;;;12.13;10.93;;;22.40;62.80;;;;;;4909996;55;21603;-34
2023/05/22 07:11:27;;;;;;;13.05;10.95;;;22.30;62.70;;;;;;4823221;55;21145;-34
2023/05/22 07:16:30;;;;;;;12.15;10.95;;;22.30;62.70;;;;;;4853699;55;21591;-35
2023/05/22 07:21:31;;;;;;;13.60;11.70;;;22.40;62.70;;;;;;4847527;55;21499;-35
2023/05/22 07:26:32;;;;;;;12.68;11.40;;;22.40;62.80;;;;;;4769128;55;21575;-35
2023/05/22 07:31:33;;;;;;;13.48;11.63;;;22.40;62.80;;;;;;4745912;55;21021;-36
2023/05/22 07:36:34;;;;;;;13.38;12.02;;;22.40;62.70;;;;;;4777645;55;21515;-35
2023/05/22 07:41:35;;;;;;;13.70;12.23;;;22.40;62.80;;;;;;4739116;59;21159;-35
2023/05/22 07:46:36;;;;;;;13.48;12.07;;;22.30;62.60;;;;;;4808420;55;21021;-38
2023/05/22 07:51:37;;;;;;;13.30;11.93;;;22.40;62.60;;;;;;4830561;55;21444;-38
2023/05/22 07:56:40;;;;;;;14.32;12.82;;;22.40;62.80;;;;;;4880749;55;21089;-36
2023/05/22 08:01:41;;;;;;;13.18;11.77;;;22.40;62.80;;;;;;4808573;55;21010;-33
2023/05/22 08:06:43;;;;;;;14.30;12.75;;;22.40;62.80;;;;;;4850622;55;20994;-37
2023/05/22 08:11:43;;;;;;;13.52;12.13;;;22.40;63.70;;;;;;4757950;55;21413;-34
2023/05/22 08:16:44;;;;;;;13.60;12.20;;;22.40;62.90;;;;;;4794087;55;21111;-36
2023/05/22 08:21:45;;;;;;;13.68;11.85;;;22.40;63.00;;;;;;4818714;55;21057;-32
2023/05/22 08:26:46;;;;;;;13.35;11.90;;;22.40;62.90;;;;;;4778956;54;21342;-36
2023/05/22 08:31:47;;;;;;;14.30;12.43;;;22.40;62.90;;;;;;4740086;59;21511;-37
2023/05/22 08:36:48;;;;;;;13.73;12.27;;;22.40;62.90;;;;;;4744328;55;21081;-35
2023/05/22 08:41:49;;;;;;;13.50;12.07;;;22.40;62.90;;;;;;4788499;55;21519;-35
2023/05/22 08:46:51;;;;;;;14.05;12.65;;;22.50;63.00;;;;;;4765020;55;21038;-36
2023/05/22 08:52:17;;;;;;;13.80;12.40;;;22.40;62.90;;;;;;4777632;55;21203;-35
2023/05/22 08:57:19;;;;;;;13.43;12.13;;;22.40;62.90;;;;;;4809559;55;20994;-29
2023/05/22 09:02:21;;;;;;;13.57;12.18;;;22.50;63.00;;;;;;4877402;55;21073;-35
2023/05/22 09:07:22;;;;;;;13.62;12.23;;;22.50;63.00;;;;;;4746907;55;21460;-39
2023/05/22 09:12:25;;;;;;;13.93;12.07;;;22.50;63.00;;;;;;4750723;55;21472;-34
2023/05/22 09:17:26;;;;;;;14.20;12.55;;;22.60;62.90;;;;;;4742242;55;21543;-28
2023/05/22 09:22:37;;;;;;;12.65;11.10;;;22.60;63.20;;;;;;4744001;55;21140;-29
2023/05/22 09:27:40;;;;;;;14.32;12.70;;;22.60;63.20;;;;;;4774900;55;21524;-33
2023/05/22 09:32:42;;;;;;;13.20;11.73;;;22.70;63.50;;;;;;4801549;55;21809;-33
2023/05/22 09:37:43;;;;;;;14.82;12.88;;;22.70;63.60;;;;;;4740238;55;21610;-35
2023/05/22 09:42:44;;;;;;;13.38;11.98;;;22.70;63.50;;;;;;4749494;54;21081;-35
2023/05/22 09:47:48;;;;;;;12.90;11.60;;;22.80;63.50;;;;;;4763573;55;21537;-36
2023/05/22 09:52:50;;;;;;;13.68;12.27;;;22.70;63.50;;;;;;4746020;55;21587;-38
2023/05/22 09:57:53;;;;;;;14.55;12.98;;;22.70;63.50;;;;;;4818063;55;21456;-35
2023/05/22 10:03:10;;;;;;;13.95;12.45;;;22.70;63.40;;;;;;4792231;55;21014;-35
2023/05/22 10:08:20;;;;;;;15.70;12.37;;;22.70;63.40;;;;;;4870024;55;21009;-27
2023/05/22 10:13:21;;;;;;;13.93;12.43;;;22.90;63.10;;;;;;4769372;55;21464;-31
2023/05/22 10:18:23;;;;;;;15.43;12.37;;;22.90;63.70;;;;;;4737961;55;21037;-31
2023/05/22 10:23:25;;;;;;;28.80;13.65;;;22.90;64.60;;;;;;4776782;55;21018;-37
2023/05/22 10:28:41;;;;;;;23.52;13.02;;;23.00;65.30;;;;;;4768119;55;21073;-32
2023/05/22 10:33:50;;;;;;;27.33;13.90;;;22.90;69.20;;;;;;4745857;55;21524;-32
2023/05/22 10:39:53;;;;;;;27.15;14.43;;;22.90;70.40;;;;;;4739555;56;21488;-36
2023/05/22 10:44:54;;;;;;;27.20;13.30;;;22.80;69.80;;;;;;4765107;55;21077;-42
2023/05/22 10:50:11;;;;;;;21.05;13.73;;;22.70;69.40;;;;;;4788183;55;21081;-34
2023/05/22 10:55:13;;;;;;;22.23;14.13;;;22.70;69.20;;;;;;4799066;55;21004;-33
2023/05/22 11:00:18;;;;;;;20.15;13.80;;;22.70;69.00;;;;;;4754011;55;21061;-34
2023/05/22 11:05:51;;;;;;;17.77;13.62;;;22.70;68.80;;;;;;4787983;55;21470;-33
2023/05/22 11:10:57;;;;;;;23.83;14.40;;;22.70;68.60;;;;;;4991489;55;21079;-31
2023/05/22 11:16:04;;;;;;;20.60;14.00;;;22.70;68.40;;;;;;4740526;59;21929;-35
2023/05/22 11:21:08;;;;;;;18.80;13.50;;;22.70;68.30;;;;;;4773582;55;21498;-37
2023/05/22 11:26:23;;;;;;;21.80;13.85;;;22.70;68.80;;;;;;4785374;55;21508;-35
2023/05/22 11:31:25;;;;;;;18.62;13.98;;;22.70;68.10;;;;;;4776466;55;20978;-33
2023/05/22 11:36:27;;;;;;;19.10;14.25;;;22.70;67.90;;;;;;4740565;59;21464;-32
2023/05/22 11:41:35;;;;;;;24.50;14.43;;;22.70;67.80;;;;;;4792185;55;21627;-33
2023/05/22 11:46:37;;;;;;;19.87;13.85;;;22.70;67.70;;;;;;4771401;55;21291;-34
2023/05/22 11:51:39;;;;;;;16.60;13.55;;;22.70;67.60;;;;;;4739922;59;21113;-32
2023/05/22 11:56:40;;;;;;;19.00;13.90;;;22.70;67.40;;;;;;4774765;55;21555;-35
2023/05/22 12:01:41;;;;;;;16.75;13.43;;;22.70;67.40;;;;;;4739573;59;21037;-33
2023/05/22 12:06:43;;;;;;;19.00;13.38;;;22.60;67.20;;;;;;4760386;55;21089;-34
2023/05/22 12:11:45;;;;;;;19.85;14.15;;;22.70;67.20;;;;;;4758474;55;21010;-33
2023/05/22 12:16:51;;;;;;;21.37;14.10;;;22.70;67.10;;;;;;4757355;55;21147;-36
2023/05/22 12:21:53;;;;;;;18.85;13.52;;;22.70;67.00;;;;;;4812039;55;21496;-32
2023/05/22 12:26:55;;;;;;;17.10;13.82;;;22.60;66.90;;;;;;4746144;55;21065;-33
2023/05/22 12:32:04;;;;;;;17.08;13.62;;;22.60;66.80;;;;;;4740193;59;21021;-33
2023/05/22 12:37:26;;;;;;;16.67;13.75;;;22.70;66.80;;;;;;4740136;59;21085;-38
2023/05/22 12:42:28;;;;;;;18.45;15.05;;;22.70;66.70;;;;;;4774596;54;21113;-35
2023/05/22 12:47:33;;;;;;;17.83;14.10;;;22.70;66.70;;;;;;4757196;55;21086;-32
2023/05/22 12:52:34;;;;;;;15.88;14.18;;;22.60;66.60;;;;;;4843971;55;21507;-36
2023/05/22 12:57:35;;;;;;;17.42;14.48;;;22.60;66.50;;;;;;4920293;55;21547;-33
2023/05/22 13:02:36;;;;;;;15.40;13.68;;;22.70;66.50;;;;;;4767193;55;21200;-36
2023/05/22 13:07:37;;;;;;;16.35;13.50;;;22.60;66.40;;;;;;4828050;55;21490;-33
2023/05/22 13:12:38;;;;;;;16.42;13.80;;;22.60;66.30;;;;;;4739754;59;21897;-34
2023/05/22 13:17:39;;;;;;;17.95;14.15;;;22.70;66.30;;;;;;4783612;55;21029;-34
2023/05/22 13:22:40;;;;;;;16.65;14.48;;;22.70;66.30;;;;;;4773008;55;21077;-30
2023/05/22 13:27:41;;;;;;;16.52;13.75;;;22.70;66.20;;;;;;4800787;55;21472;-31
2023/05/22 13:32:42;;;;;;;16.75;13.65;;;22.60;66.10;;;;;;4892422;55;21072;-36
2023/05/22 13:37:43;;;;;;;16.33;14.13;;;22.60;66.10;;;;;;4739981;59;21559;-31
2023/05/22 13:42:44;;;;;;;16.67;14.07;;;22.70;66.10;;;;;;4739525;59;21322;-33
2023/05/22 13:47:45;;;;;;;15.93;13.60;;;22.60;66.10;;;;;;4744110;55;21902;-32
2023/05/22 13:52:46;;;;;;;16.08;14.32;;;22.60;66.00;;;;;;4861504;55;21492;-35
2023/05/22 13:57:47;;;;;;;16.10;14.02;;;22.70;66.00;;;;;;4842800;55;22288;-31
2023/05/22 14:02:47;;;;;;;18.15;13.88;;;22.60;65.90;;;;;;4806573;55;21009;-32
2023/05/22 14:07:49;;;;;;;18.08;14.95;;;22.60;65.80;;;;;;4758259;55;21013;-32
2023/05/22 14:12:50;;;;;;;15.05;13.45;;;22.70;65.80;;;;;;4740220;59;21504;-32
2023/05/22 14:17:50;;;;;;;16.27;13.25;;;22.70;65.80;;;;;;4810624;55;22079;-31
2023/05/22 14:22:51;;;;;;;16.40;14.55;;;22.70;65.80;;;;;;4792361;55;21041;-36
2023/05/22 14:27:52;;;;;;;17.58;14.40;;;22.70;65.70;;;;;;4801232;55;21100;-32
2023/05/22 14:32:53;;;;;;;17.37;14.73;;;22.70;65.70;;;;;;5138064;55;21452;-37
2023/05/22 14:37:54;;;;;;;17.05;14.48;;;22.70;65.60;;;;;;4788941;55;21521;-32
2023/05/22 14:42:55;;;;;;;16.95;14.02;;;22.70;65.60;;;;;;4874783;55;21045;-32
2023/05/22 14:47:55;;;;;;;18.35;15.07;;;22.70;65.50;;;;;;4835848;55;21577;-33
2023/05/22 14:52:56;;;;;;;18.42;15.43;;;22.70;65.50;;;;;;4740261;59;21009;-33
2023/05/22 14:57:57;;;;;;;17.92;14.77;;;22.70;65.50;;;;;;4740376;55;21049;-31
2023/05/22 15:03:01;;;;;;;20.92;16.25;;;22.70;66.20;;;;;;4770684;55;21061;-32
2023/05/22 15:08:02;;;;;;;17.23;15.40;;;22.70;65.40;;;;;;4757998;55;21602;-37
2023/05/22 15:13:03;;;;;;;19.20;15.85;;;22.70;65.40;;;;;;4740238;59;21499;-35
2023/05/22 15:18:04;;;;;;;21.98;16.98;;;22.70;65.40;;;;;;4741966;55;21346;-32
2023/05/22 15:23:05;;;;;;;18.15;14.60;;;22.70;65.40;;;;;;4834006;55;21677;-32
2023/05/22 15:28:06;;;;;;;18.25;14.55;;;22.70;65.30;;;;;;4809433;54;21172;-32
2023/05/22 15:33:07;;;;;;;18.90;15.73;;;22.70;65.20;;;;;;4791522;55;21611;-33
2023/05/22 15:38:11;;;;;;;19.08;15.10;;;22.70;65.80;;;;;;4778247;55;22369;-36
2023/05/22 15:43:12;;;;;;;16.70;14.87;;;22.70;65.20;;;;;;4874297;55;21511;-29
2023/05/22 15:48:13;;;;;;;18.00;15.88;;;22.70;65.20;;;;;;4889087;55;21041;-33
2023/05/22 15:53:14;;;;;;;19.23;15.05;;;22.70;65.20;;;;;;4774088;55;21111;-32
2023/05/22 15:58:16;;;;;;;18.70;16.27;;;22.70;65.10;;;;;;4752841;55;21578;-32
2023/05/22 16:03:17;;;;;;;19.92;16.08;;;22.70;65.10;;;;;;4941928;55;21562;-32
2023/05/22 16:08:17;;;;;;;17.95;15.73;;;22.70;65.10;;;;;;4808716;55;21162;-31
2023/05/22 16:13:18;;;;;;;19.55;15.73;;;22.70;65.10;;;;;;4777905;55;21559;-36
2023/05/22 16:18:21;;;;;;;17.62;14.77;;;22.70;65.00;;;;;;4752054;54;21484;-34
2023/05/22 16:23:22;;;;;;;16.62;14.80;;;22.70;65.00;;;;;;4764215;55;21531;-39
2023/05/22 16:28:23;;;;;;;17.98;14.43;;;22.70;65.00;;;;;;4741521;55;21068;-33
2023/05/22 16:33:24;;;;;;;18.27;15.43;;;22.70;65.00;;;;;;4756871;55;21099;-32
2023/05/22 16:38:25;;;;;;;17.67;14.77;;;22.70;64.90;;;;;;4741547;55;21514;-36
2023/05/22 16:43:26;;;;;;;16.45;14.57;;;22.70;65.00;;;;;;4737523;58;21089;-32
2023/05/22 16:48:27;;;;;;;19.85;15.35;;;22.70;64.90;;;;;;4757850;54;21455;-36
2023/05/22 16:53:28;;;;;;;20.23;15.18;;;22.70;64.90;;;;;;4775570;54;21025;-38
2023/05/22 16:58:28;;;;;;;19.83;15.07;;;22.70;64.90;;;;;;4742093;55;21431;-34
2023/05/22 17:03:29;;;;;;;18.30;14.63;;;22.70;64.90;;;;;;4789081;54;21444;-36
2023/05/22 17:08:31;;;;;;;17.52;14.43;;;22.70;64.90;;;;;;4763517;55;21021;-36
2023/05/22 17:13:31;;;;;;;17.52;15.00;;;22.70;64.90;;;;;;4737128;55;21666;-32
2023/05/22 17:18:32;;;;;;;16.33;14.35;;;22.70;64.80;;;;;;4878264;55;21090;-35
2023/05/22 17:23:35;;;;;;;16.45;14.35;;;22.70;64.90;;;;;;4796970;55;21527;-33
2023/05/22 17:28:36;;;;;;;14.98;13.38;;;22.70;64.80;;;;;;4788548;55;21368;-33
2023/05/22 17:33:37;;;;;;;16.55;14.63;;;22.70;64.80;;;;;;4746080;55;21046;-32
2023/05/22 17:38:38;;;;;;;16.55;14.82;;;22.70;64.80;;;;;;4740835;55;21117;-32
2023/05/22 17:43:39;;;;;;;17.42;14.55;;;22.70;64.80;;;;;;4801293;55;21002;-37
2023/05/22 17:48:40;;;;;;;16.15;14.45;;;22.70;64.80;;;;;;4744871;55;21444;-35
2023/05/22 17:53:41;;;;;;;15.95;14.05;;;22.70;64.80;;;;;;4781861;55;21555;-36
2023/05/22 17:58:42;;;;;;;16.35;13.80;;;22.70;64.80;;;;;;4803902;55;21551;-29
2023/05/22 18:03:44;;;;;;;16.45;14.18;;;22.70;64.80;;;;;;4739050;59;21013;-35
2023/05/22 18:08:46;;;;;;;16.42;14.23;;;22.70;64.80;;;;;;4740147;55;21242;-34
2023/05/22 18:13:47;;;;;;;15.25;13.65;;;22.70;64.80;;;;;;4740274;59;21653;-32
2023/05/22 18:18:48;;;;;;;15.68;14.07;;;22.70;64.80;;;;;;4739887;59;21021;-32
2023/05/22 18:23:49;;;;;;;16.33;13.85;;;22.70;64.90;;;;;;4751272;54;21021;-36
2023/05/22 18:28:49;;;;;;;15.30;13.35;;;22.70;64.80;;;;;;4740109;55;21037;-33
2023/05/22 18:33:51;;;;;;;16.98;14.20;;;22.70;64.80;;;;;;4739726;59;21137;-33
2023/05/22 18:38:52;;;;;;;14.48;12.98;;;22.70;64.90;;;;;;4775670;55;21037;-34
2023/05/22 18:43:52;;;;;;;16.40;13.95;;;22.70;64.80;;;;;;4739005;58;21117;-32
2023/05/22 18:48:54;;;;;;;16.60;13.73;;;22.70;64.80;;;;;;4740225;59;21041;-37
2023/05/22 18:53:57;;;;;;;16.10;14.35;;;22.70;64.80;;;;;;4948495;55;21069;-35
2023/05/22 18:58:58;;;;;;;15.75;13.55;;;22.70;64.80;;;;;;4776146;55;21017;-43
2023/05/22 19:03:59;;;;;;;14.87;13.27;;;22.70;64.90;;;;;;4894505;55;21546;-35
2023/05/22 19:09:00;;;;;;;14.87;13.13;;;22.70;64.80;;;;;;4836037;55;21559;-31
2023/05/22 19:14:01;;;;;;;14.57;13.00;;;22.70;64.80;;;;;;4740024;59;21061;-31
2023/05/22 19:19:02;;;;;;;14.65;13.15;;;22.70;64.80;;;;;;4862741;55;21034;-34
2023/05/22 19:24:05;;;;;;;14.98;13.23;;;22.70;64.80;;;;;;4774844;55;21013;-38
2023/05/22 19:29:05;;;;;;;14.60;13.07;;;22.70;64.80;;;;;;4754823;55;21085;-37
2023/05/22 19:34:06;;;;;;;15.60;13.93;;;22.70;64.80;;;;;;4900559;55;21100;-33
2023/05/22 19:39:07;;;;;;;13.62;12.27;;;22.70;64.80;;;;;;4778590;55;21041;-32
2023/05/22 19:44:08;;;;;;;15.60;13.60;;;22.70;65.20;;;;;;4752100;55;21077;-34
2023/05/22 19:49:09;;;;;;;15.02;13.43;;;22.70;64.80;;;;;;4740093;59;21069;-33
2023/05/22 19:54:10;;;;;;;14.18;12.68;;;22.70;64.80;;;;;;4784296;55;21444;-32
2023/05/22 19:59:10;;;;;;;14.02;12.63;;;22.70;64.80;;;;;;4810930;55;21010;-41
2023/05/22 20:04:11;;;;;;;14.40;12.90;;;22.70;64.80;;;;;;4751813;55;21081;-36
2023/05/22 20:09:14;;;;;;;13.43;12.02;;;22.70;64.80;;;;;;4750577;55;21010;-32
2023/05/22 20:14:15;;;;;;;14.25;12.85;;;22.70;64.80;;;;;;4762059;55;21005;-35
2023/05/22 20:19:16;;;;;;;14.35;12.70;;;22.70;64.80;;;;;;5030988;55;21464;-34
2023/05/22 20:24:23;;;;;;;14.43;12.93;;;22.70;64.80;;;;;;4833639;55;21532;-36
2023/05/22 20:29:24;;;;;;;13.40;12.07;;;22.70;64.80;;;;;;4836742;55;21985;-37
2023/05/22 20:34:27;;;;;;;14.38;12.88;;;22.70;64.80;;;;;;4740590;59;21033;-34
2023/05/22 20:39:29;;;;;;;14.02;12.57;;;22.70;64.80;;;;;;4827313;55;21793;-34
2023/05/22 20:44:30;;;;;;;13.60;12.20;;;22.70;64.80;;;;;;4796178;55;21507;-37
2023/05/22 20:49:33;;;;;;;14.05;12.60;;;22.70;64.80;;;;;;4740196;59;21021;-38
2023/05/22 20:54:34;;;;;;;13.35;12.05;;;22.70;64.80;;;;;;4805686;55;21464;-33
2023/05/22 20:59:36;;;;;;;14.48;12.98;;;22.70;64.80;;;;;;4856729;55;21433;-31
2023/05/22 21:04:37;;;;;;;13.70;12.30;;;22.70;64.80;;;;;;4740096;55;21564;-32
2023/05/22 21:09:37;;;;;;;14.60;13.10;;;22.70;64.90;;;;;;4747449;55;21106;-33
2023/05/22 21:14:39;;;;;;;13.38;11.95;;;22.70;64.80;;;;;;4799194;55;21085;-37
2023/05/22 21:19:40;;;;;;;14.20;12.68;;;22.70;64.90;;;;;;4797279;55;21455;-32
2023/05/22 21:24:41;;;;;;;13.10;11.80;;;22.70;64.80;;;;;;4747183;55;21042;-36
2023/05/22 21:29:41;;;;;;;13.55;12.25;;;22.70;64.80;;;;;;4862836;55;21005;-36
2023/05/22 21:34:42;;;;;;;12.98;11.68;;;22.70;64.80;;;;;;4756659;55;21017;-37
2023/05/22 21:39:43;;;;;;;14.07;12.68;;;22.70;64.90;;;;;;4754345;55;21030;-31
2023/05/22 21:44:44;;;;;;;13.13;11.82;;;22.70;64.80;;;;;;4824285;55;21037;-39
2023/05/22 21:49:45;;;;;;;13.02;11.63;;;22.70;64.90;;;;;;4799882;55;21575;-37
2023/05/22 21:54:49;;;;;;;13.57;12.18;;;22.70;64.80;;;;;;4739796;59;21065;-35
2023/05/22 21:59:50;;;;;;;12.95;11.57;;;22.70;64.90;;;;;;4892941;55;21024;-33
2023/05/22 22:04:51;;;;;;;13.45;12.05;;;22.70;64.80;;;;;;4743004;55;21527;-32
2023/05/22 22:09:51;;;;;;;13.13;11.70;;;22.70;64.90;;;;;;4775963;55;21144;-33
2023/05/22 22:14:52;;;;;;;13.18;11.88;;;22.70;64.80;;;;;;4739990;59;21005;-34
2023/05/22 22:19:55;;;;;;;13.43;12.02;;;22.70;65.50;;;;;;5017837;55;21093;-32
2023/05/22 22:24:56;;;;;;;13.50;12.20;;;22.70;64.80;;;;;;4770072;55;22484;-36
2023/05/22 22:29:57;;;;;;;13.52;12.13;;;22.70;64.80;;;;;;4816991;55;21014;-37
2023/05/22 22:34:58;;;;;;;13.43;12.02;;;22.70;64.80;;;;;;4852851;55;21452;-32
2023/05/22 22:39:58;;;;;;;12.95;11.55;;;22.70;64.80;;;;;;4739231;59;21116;-35
2023/05/22 22:44:59;;;;;;;12.45;11.23;;;22.70;64.80;;;;;;4800005;54;21065;-32
2023/05/22 22:50:01;;;;;;;13.30;12.00;;;22.70;64.90;;;;;;4892654;55;21100;-34
2023/05/22 22:55:02;;;;;;;12.15;10.95;;;22.70;64.80;;;;;;4863176;55;21017;-30
2023/05/22 23:00:04;;;;;;;12.55;11.30;;;22.70;64.80;;;;;;4740539;55;20997;-36
2023/05/22 23:05:06;;;;;;;13.00;11.73;;;22.70;64.80;;;;;;4854063;55;21511;-34
2023/05/22 23:10:08;;;;;;;13.05;11.75;;;22.70;64.80;;;;;;4740452;59;21314;-32
2023/05/22 23:15:10;;;;;;;12.68;11.48;;;22.70;64.80;;;;;;4831252;54;20977;-35
2023/05/22 23:20:11;;;;;;;12.25;11.05;;;22.70;64.80;;;;;;4781238;55;21950;-37
2023/05/22 23:25:12;;;;;;;12.55;11.35;;;22.70;64.80;;;;;;4739493;59;21554;-34
2023/05/22 23:30:13;;;;;;;12.43;11.18;;;22.70;64.80;;;;;;4804137;55;21037;-37
2023/05/22 23:35:14;;;;;;;12.50;11.20;;;22.70;64.80;;;;;;4742481;55;21539;-35
2023/05/22 23:40:15;;;;;;;12.32;11.12;;;22.70;64.80;;;;;;4788750;55;21117;-32
2023/05/22 23:45:16;;;;;;;13.00;11.70;;;22.70;64.80;;;;;;4754979;55;21041;-35
2023/05/22 23:50:19;;;;;;;12.30;11.05;;;22.70;64.80;;;;;;4742730;54;21009;-32
2023/05/22 23:55:20;;;;;;;12.27;11.07;;;22.70;64.80;;;;;;4784069;55;21471;-35
